Time;durP1;ratioP1;P1;durP2;ratioP2;P2;SDS_P1;SDS_P2;PMS_P1;PMS_P2;Temp;Humidity;BMP_temperature;BMP_pressure;BME280_temperature;BME280_humidity;BME280_pressure;Samples;Min_cycle;Max_cycle;Signal;HPM_P1;HPM_P2
2021/05/26 00:00:34;;;;;;;2.80;2.08;;;10.60;90.80;;;;;;5050415;28;20033;-57
2021/05/26 00:03:00;;;;;;;3.40;2.22;;;10.70;90.70;;;;;;5052094;28;20504;-55
2021/05/26 00:05:27;;;;;;;3.00;2.33;;;10.60;90.80;;;;;;5051763;28;20040;-52
2021/05/26 00:07:52;;;;;;;2.30;2.05;;;10.70;90.60;;;;;;5050853;28;20037;-56
2021/05/26 00:10:18;;;;;;;3.25;2.20;;;10.60;90.90;;;;;;5029156;28;20390;-52
2021/05/26 00:12:44;;;;;;;3.05;1.92;;;10.60;90.90;;;;;;5040104;28;20401;-58
2021/05/26 00:15:10;;;;;;;5.53;2.35;;;10.60;91.00;;;;;;5039909;28;20401;-57
2021/05/26 00:17:36;;;;;;;4.10;2.22;;;10.60;91.00;;;;;;5032452;28;20041;-53
2021/05/26 00:20:02;;;;;;;4.28;2.50;;;10.60;91.00;;;;;;5031721;28;20034;-58
2021/05/26 00:22:28;;;;;;;4.88;2.20;;;10.70;90.80;;;;;;5033377;28;20029;-57
2021/05/26 00:24:53;;;;;;;6.50;2.45;;;10.70;90.70;;;;;;5032029;28;20492;-57
2021/05/26 00:27:19;;;;;;;3.20;2.28;;;10.70;90.80;;;;;;5033008;28;20112;-54
2021/05/26 00:29:46;;;;;;;4.43;2.55;;;10.70;90.90;;;;;;5037833;28;20029;-56
2021/05/26 00:32:12;;;;;;;3.90;2.13;;;10.60;91.10;;;;;;5026019;28;20021;-54
2021/05/26 00:34:38;;;;;;;4.00;2.50;;;10.70;91.10;;;;;;5032905;28;20393;-55
2021/05/26 00:37:05;;;;;;;2.67;2.30;;;10.70;91.00;;;;;;5032794;28;20047;-54
2021/05/26 00:39:31;;;;;;;2.72;2.00;;;10.60;91.30;;;;;;5031811;28;20390;-58
2021/05/26 00:41:57;;;;;;;4.65;2.60;;;10.70;91.20;;;;;;5032388;28;20103;-56
2021/05/26 00:44:23;;;;;;;3.22;2.38;;;10.70;90.90;;;;;;5032146;28;20033;-57
2021/05/26 00:46:49;;;;;;;3.95;2.33;;;10.70;91.00;;;;;;5032356;28;20449;-54
2021/05/26 00:49:15;;;;;;;5.47;2.45;;;10.70;91.00;;;;;;5032325;28;20036;-56
2021/05/26 00:51:41;;;;;;;3.55;2.33;;;10.70;91.10;;;;;;5036824;28;20033;-59
2021/05/26 00:54:07;;;;;;;6.85;2.83;;;10.70;91.00;;;;;;5041992;28;20057;-58
2021/05/26 00:56:34;;;;;;;4.13;2.42;;;10.60;91.10;;;;;;5032116;28;20045;-58
2021/05/26 00:59:02;;;;;;;5.18;2.35;;;10.60;91.30;;;;;;5032153;28;20045;-58
2021/05/26 01:01:28;;;;;;;5.25;2.30;;;10.60;91.30;;;;;;5031039;28;20060;-57
2021/05/26 01:03:55;;;;;;;3.60;2.78;;;10.60;91.40;;;;;;5037428;28;20400;-55
2021/05/26 01:06:21;;;;;;;3.35;2.28;;;10.60;91.30;;;;;;5039827;28;20496;-58
2021/05/26 01:08:46;;;;;;;3.67;2.58;;;10.60;91.20;;;;;;5031934;28;20107;-56
2021/05/26 01:11:12;;;;;;;4.18;2.60;;;10.40;91.40;;;;;;5023266;28;20069;-53
2021/05/26 01:13:38;;;;;;;3.85;2.53;;;10.50;91.40;;;;;;5036275;28;20397;-54
2021/05/26 01:16:04;;;;;;;4.85;2.80;;;10.50;91.10;;;;;;5041342;28;20033;-53
2021/05/26 01:18:33;;;;;;;5.47;2.60;;;10.50;91.30;;;;;;5040894;28;20032;-52
2021/05/26 01:21:02;;;;;;;6.50;2.63;;;10.50;91.40;;;;;;5037213;28;20036;-52
2021/05/26 01:23:28;;;;;;;5.15;2.55;;;10.50;91.30;;;;;;5034238;28;20108;-56
2021/05/26 01:25:57;;;;;;;5.35;2.92;;;10.60;91.20;;;;;;5032317;28;20044;-53
2021/05/26 01:28:25;;;;;;;4.85;2.40;;;10.60;91.20;;;;;;5031827;28;20128;-54
2021/05/26 01:30:50;;;;;;;4.82;2.40;;;10.70;91.00;;;;;;5032166;28;20025;-55
2021/05/26 01:33:17;;;;;;;4.40;2.25;;;10.60;91.10;;;;;;5031824;28;20041;-56
2021/05/26 01:35:44;;;;;;;3.97;2.50;;;10.60;91.10;;;;;;5030322;28;20116;-54
2021/05/26 01:38:14;;;;;;;3.55;2.40;;;10.60;91.10;;;;;;5019926;28;20032;-56
2021/05/26 01:40:40;;;;;;;4.03;2.40;;;10.60;91.10;;;;;;5031527;28;20516;-57
2021/05/26 01:43:06;;;;;;;6.10;2.72;;;10.60;91.00;;;;;;5031913;28;20045;-55
2021/05/26 01:45:32;;;;;;;3.53;2.35;;;10.70;90.90;;;;;;5031743;28;20075;-54
2021/05/26 01:47:58;;;;;;;4.05;2.40;;;10.60;91.10;;;;;;5031471;28;20041;-51
2021/05/26 01:50:23;;;;;;;5.10;2.42;;;10.60;91.30;;;;;;5032273;28;20026;-53
2021/05/26 01:53:05;;;;;;;2.92;2.38;;;10.60;90.70;;;;;;5031110;28;20493;-54
2021/05/26 01:55:32;;;;;;;9.73;2.40;;;10.60;90.80;;;;;;5031665;28;20091;-51
2021/05/26 01:57:58;;;;;;;5.10;2.42;;;10.60;90.90;;;;;;5031441;28;20032;-55
2021/05/26 02:00:24;;;;;;;3.97;2.33;;;10.60;91.00;;;;;;5031490;28;20084;-57
2021/05/26 02:02:50;;;;;;;4.20;2.50;;;10.50;91.10;;;;;;5031686;28;20508;-55
2021/05/26 02:05:16;;;;;;;6.13;2.80;;;10.40;91.50;;;;;;5044602;28;20026;-55
2021/05/26 02:07:41;;;;;;;3.10;2.55;;;10.40;91.70;;;;;;5030304;28;20030;-55
2021/05/26 02:10:10;;;;;;;4.15;2.75;;;10.40;91.60;;;;;;5022663;28;20041;-52
2021/05/26 02:12:37;;;;;;;7.80;3.00;;;10.40;91.70;;;;;;5030403;28;20127;-55
2021/05/26 02:15:06;;;;;;;5.93;2.83;;;10.40;91.60;;;;;;5031410;28;20081;-53
2021/05/26 02:17:32;;;;;;;4.05;2.75;;;10.40;91.80;;;;;;5031684;28;20127;-52
2021/05/26 02:19:58;;;;;;;3.08;2.47;;;10.30;91.60;;;;;;5031256;28;20566;-54
2021/05/26 02:22:23;;;;;;;2.92;2.40;;;10.40;91.80;;;;;;5030440;28;20041;-52
2021/05/26 02:24:49;;;;;;;5.38;2.55;;;10.40;91.80;;;;;;5031340;28;20030;-55
2021/05/26 02:27:15;;;;;;;7.32;3.00;;;10.40;91.80;;;;;;5029962;28;20461;-54
2021/05/26 02:29:41;;;;;;;5.00;2.47;;;10.50;91.70;;;;;;5030945;28;20075;-57
2021/05/26 02:32:08;;;;;;;3.85;2.42;;;10.50;91.50;;;;;;5031445;28;20053;-56
2021/05/26 02:34:34;;;;;;;3.90;2.60;;;10.50;91.60;;;;;;5031591;28;20041;-54
2021/05/26 02:37:00;;;;;;;5.45;2.65;;;10.40;91.70;;;;;;5018077;28;20032;-55
2021/05/26 02:39:25;;;;;;;4.70;2.58;;;10.40;91.70;;;;;;5029648;28;20041;-52
2021/05/26 02:41:51;;;;;;;4.15;2.50;;;10.50;91.70;;;;;;5030745;28;20481;-54
2021/05/26 02:44:17;;;;;;;5.80;2.60;;;10.60;91.60;;;;;;5031452;28;20021;-55
2021/05/26 02:46:44;;;;;;;3.75;2.63;;;10.60;91.40;;;;;;5031067;28;20438;-56
2021/05/26 02:49:09;;;;;;;5.68;2.38;;;10.70;91.20;;;;;;5030978;28;20472;-56
2021/05/26 02:51:36;;;;;;;5.03;2.58;;;10.70;91.10;;;;;;5031492;28;20041;-55
2021/05/26 02:54:03;;;;;;;4.35;2.75;;;10.60;91.20;;;;;;5031383;28;20060;-54
2021/05/26 02:56:29;;;;;;;4.25;2.50;;;10.70;91.10;;;;;;5031211;28;20041;-51
2021/05/26 02:58:55;;;;;;;4.38;2.60;;;10.60;91.20;;;;;;5030803;28;20041;-56
2021/05/26 03:01:21;;;;;;;8.25;2.45;;;10.60;91.20;;;;;;5030535;28;20485;-55
2021/05/26 03:03:47;;;;;;;8.73;2.70;;;10.60;91.10;;;;;;5038170;28;20108;-56
2021/05/26 03:06:13;;;;;;;5.20;2.35;;;10.50;91.50;;;;;;5040169;28;20119;-57
2021/05/26 03:08:39;;;;;;;4.40;2.67;;;10.40;91.80;;;;;;5034483;28;20519;-55
2021/05/26 03:11:05;;;;;;;5.72;2.38;;;10.30;91.60;;;;;;5026015;28;20041;-55
2021/05/26 03:13:31;;;;;;;5.68;2.60;;;10.30;91.70;;;;;;5034579;28;20065;-52
2021/05/26 03:15:56;;;;;;;7.18;3.00;;;10.40;91.70;;;;;;5034625;28;20071;-52
2021/05/26 03:18:23;;;;;;;9.30;2.95;;;10.40;91.70;;;;;;5033960;28;20041;-51
2021/05/26 03:20:49;;;;;;;3.28;2.35;;;10.30;91.80;;;;;;5032638;28;20041;-52
2021/05/26 03:23:19;;;;;;;8.82;2.60;;;10.20;92.00;;;;;;5032152;28;20036;-55
2021/05/26 03:25:48;;;;;;;6.00;2.67;;;10.20;91.90;;;;;;5034098;28;20112;-53
2021/05/26 03:28:15;;;;;;;3.65;2.58;;;10.20;92.10;;;;;;5034164;28;20124;-52
2021/05/26 03:30:41;;;;;;;4.53;2.72;;;10.30;92.00;;;;;;5033729;28;20470;-55
2021/05/26 03:33:07;;;;;;;5.68;2.88;;;10.20;92.00;;;;;;5034291;28;20124;-57
2021/05/26 03:35:33;;;;;;;4.93;2.65;;;10.20;92.10;;;;;;5034043;28;20116;-57
2021/05/26 03:37:59;;;;;;;5.18;2.70;;;10.40;91.70;;;;;;5034171;28;20443;-54
2021/05/26 03:40:25;;;;;;;3.90;3.00;;;10.50;91.50;;;;;;5033396;28;20029;-56
2021/05/26 03:42:51;;;;;;;4.47;2.60;;;10.50;91.50;;;;;;5033961;28;20045;-55
2021/05/26 03:45:17;;;;;;;4.40;2.83;;;10.40;91.70;;;;;;5034387;28;20116;-53
2021/05/26 03:47:42;;;;;;;5.13;2.85;;;10.40;91.30;;;;;;5033446;28;20033;-53
2021/05/26 03:50:12;;;;;;;6.68;2.95;;;10.50;91.40;;;;;;5034142;28;20492;-53
2021/05/26 03:52:43;;;;;;;7.30;3.20;;;10.50;91.30;;;;;;5033967;28;20025;-55
2021/05/26 03:55:10;;;;;;;6.18;3.42;;;10.60;91.10;;;;;;5033866;28;20037;-54
2021/05/26 03:57:37;;;;;;;5.97;2.90;;;10.60;91.00;;;;;;5034020;28;20036;-56
2021/05/26 04:00:07;;;;;;;5.53;2.60;;;10.60;90.90;;;;;;5031764;28;20034;-51
2021/05/26 04:02:33;;;;;;;6.07;2.60;;;10.60;91.00;;;;;;5032869;28;20033;-48
2021/05/26 04:04:59;;;;;;;4.35;2.78;;;10.60;90.80;;;;;;5039517;28;20038;-52
2021/05/26 04:07:25;;;;;;;12.57;4.25;;;10.60;90.90;;;;;;5033428;28;20436;-51
2021/05/26 04:09:50;;;;;;;4.85;2.70;;;10.60;90.80;;;;;;5031829;28;20033;-54
2021/05/26 04:12:16;;;;;;;6.43;3.10;;;10.60;90.90;;;;;;5034091;28;20033;-53
2021/05/26 04:14:42;;;;;;;5.03;2.42;;;10.60;91.00;;;;;;5035464;28;20113;-56
2021/05/26 04:17:07;;;;;;;6.93;2.97;;;10.60;90.90;;;;;;5034321;28;20619;-50
2021/05/26 04:19:33;;;;;;;5.72;2.80;;;10.50;91.20;;;;;;5033315;28;20021;-53
2021/05/26 04:21:58;;;;;;;7.13;2.92;;;10.70;90.90;;;;;;5033206;28;20178;-55
2021/05/26 04:24:24;;;;;;;5.38;2.92;;;10.70;91.00;;;;;;5033447;28;20032;-52
2021/05/26 04:26:50;;;;;;;4.93;2.75;;;10.60;91.10;;;;;;5033097;28;20489;-54
2021/05/26 04:29:17;;;;;;;4.85;2.92;;;10.60;91.20;;;;;;5032457;28;20404;-52
2021/05/26 04:31:42;;;;;;;7.22;3.17;;;10.50;91.40;;;;;;5031957;28;20034;-54
2021/05/26 04:34:08;;;;;;;9.98;3.08;;;10.60;91.40;;;;;;5032882;28;20082;-52
2021/05/26 04:36:33;;;;;;;4.93;2.70;;;10.70;91.20;;;;;;5033024;28;20033;-53
2021/05/26 04:38:59;;;;;;;6.93;2.90;;;10.60;91.10;;;;;;5033317;28;20463;-52
2021/05/26 04:41:25;;;;;;;7.97;2.83;;;10.50;91.40;;;;;;5033155;28;20559;-53
2021/05/26 04:43:50;;;;;;;4.15;2.90;;;10.50;91.30;;;;;;5032761;28;20609;-47
2021/05/26 04:46:16;;;;;;;7.85;3.13;;;10.50;91.20;;;;;;5033167;28;20025;-51
2021/05/26 04:48:42;;;;;;;4.53;2.47;;;10.60;90.90;;;;;;5032752;28;20033;-57
2021/05/26 04:51:08;;;;;;;8.68;3.45;;;10.60;90.90;;;;;;5028640;28;20507;-53
2021/05/26 04:53:33;;;;;;;3.80;2.83;;;10.60;90.80;;;;;;5031858;28;20045;-51
2021/05/26 04:55:59;;;;;;;8.57;2.78;;;10.70;90.70;;;;;;5032687;28;20045;-49
2021/05/26 04:58:24;;;;;;;5.03;2.63;;;10.70;90.80;;;;;;5032027;28;20481;-51
2021/05/26 05:00:50;;;;;;;4.65;2.50;;;10.60;90.80;;;;;;5032417;28;20489;-54
2021/05/26 05:03:16;;;;;;;5.32;2.72;;;10.70;90.40;;;;;;5033257;28;20501;-51
2021/05/26 05:05:41;;;;;;;6.47;2.78;;;10.70;90.40;;;;;;5046174;28;20531;-52
2021/05/26 05:08:09;;;;;;;4.53;2.70;;;10.70;90.50;;;;;;5030076;28;20038;-51
2021/05/26 05:10:34;;;;;;;6.82;3.15;;;10.70;90.60;;;;;;5031233;28;20021;-48
2021/05/26 05:13:00;;;;;;;3.67;2.55;;;10.70;90.70;;;;;;5032290;28;20430;-52
2021/05/26 05:15:26;;;;;;;4.97;2.40;;;10.70;90.60;;;;;;5030435;28;20029;-50
2021/05/26 05:17:52;;;;;;;7.30;2.60;;;10.60;90.80;;;;;;5031492;28;20025;-51
2021/05/26 05:20:20;;;;;;;6.30;2.70;;;10.60;90.80;;;;;;5032124;28;20520;-48
2021/05/26 05:22:53;;;;;;;6.05;2.60;;;10.60;90.80;;;;;;5032230;28;20037;-57
2021/05/26 05:25:20;;;;;;;4.97;2.40;;;10.70;90.70;;;;;;5031642;28;20515;-50
2021/05/26 05:27:45;;;;;;;8.45;2.63;;;10.60;90.70;;;;;;5031299;28;20512;-52
2021/05/26 05:30:12;;;;;;;4.90;2.58;;;10.60;90.80;;;;;;5030956;28;20037;-50
2021/05/26 05:32:38;;;;;;;4.10;2.40;;;10.70;90.80;;;;;;5030969;28;20117;-55
2021/05/26 05:35:05;;;;;;;4.35;2.47;;;10.70;90.60;;;;;;5032170;28;20405;-53
2021/05/26 05:37:30;;;;;;;4.20;2.50;;;10.60;90.80;;;;;;5040467;28;20044;-52
2021/05/26 05:39:56;;;;;;;4.80;2.40;;;10.70;90.60;;;;;;5031955;28;20409;-54
2021/05/26 05:42:22;;;;;;;6.60;2.58;;;10.70;90.70;;;;;;5033504;28;20489;-53
2021/05/26 05:44:47;;;;;;;7.57;3.22;;;10.70;90.70;;;;;;5032106;28;20033;-49
2021/05/26 05:47:13;;;;;;;5.20;3.13;;;10.70;90.90;;;;;;5030826;28;20100;-51
2021/05/26 05:49:39;;;;;;;5.28;2.80;;;10.90;90.70;;;;;;5031517;28;20061;-56
2021/05/26 05:52:08;;;;;;;4.85;2.90;;;11.10;90.40;;;;;;5030933;28;20083;-55
2021/05/26 05:54:33;;;;;;;6.60;3.10;;;11.10;90.30;;;;;;5032099;28;20493;-53
2021/05/26 05:56:59;;;;;;;6.93;3.10;;;11.10;90.40;;;;;;5030213;28;20105;-54
2021/05/26 05:59:25;;;;;;;12.15;3.42;;;11.20;90.10;;;;;;5031248;28;20045;-53
2021/05/26 06:01:50;;;;;;;16.38;4.25;;;11.20;90.30;;;;;;5009868;28;20048;-51
2021/05/26 06:04:16;;;;;;;8.75;3.03;;;11.20;90.30;;;;;;5025850;28;20110;-54
2021/05/26 06:06:41;;;;;;;8.10;3.20;;;11.30;89.90;;;;;;5031870;28;20055;-51
2021/05/26 06:09:07;;;;;;;9.90;3.35;;;11.40;90.00;;;;;;5028459;28;20041;-54
2021/05/26 06:11:35;;;;;;;6.80;3.58;;;11.40;89.70;;;;;;5025151;28;20040;-54
2021/05/26 06:14:05;;;;;;;10.13;3.40;;;11.40;89.60;;;;;;5031178;28;20026;-49
2021/05/26 06:16:37;;;;;;;8.43;3.67;;;11.40;89.60;;;;;;5031101;28;20030;-48
2021/05/26 06:19:04;;;;;;;5.40;2.97;;;11.50;89.70;;;;;;5030732;28;20037;-48
2021/05/26 06:21:30;;;;;;;9.85;3.03;;;11.60;88.60;;;;;;5013845;28;20034;-51
2021/05/26 06:23:56;;;;;;;11.60;3.13;;;11.60;88.80;;;;;;5027737;28;20385;-56
2021/05/26 06:26:22;;;;;;;7.28;3.45;;;11.60;88.30;;;;;;5031185;28;20044;-53
2021/05/26 06:28:48;;;;;;;6.10;3.00;;;11.70;89.10;;;;;;5031234;28;20041;-56
2021/05/26 06:31:15;;;;;;;5.38;2.90;;;11.90;89.20;;;;;;5030852;28;20065;-53
2021/05/26 06:33:42;;;;;;;6.68;3.40;;;11.90;88.10;;;;;;5023865;28;20073;-52
2021/05/26 06:36:09;;;;;;;4.20;2.90;;;11.90;87.80;;;;;;5034879;28;20060;-49
2021/05/26 06:38:35;;;;;;;7.10;3.08;;;11.90;87.90;;;;;;5033168;28;20401;-49
2021/05/26 06:41:01;;;;;;;8.02;3.00;;;11.90;87.50;;;;;;5035243;28;20033;-50
2021/05/26 06:43:26;;;;;;;13.77;4.00;;;11.90;87.70;;;;;;5034948;28;20076;-51
2021/05/26 06:45:52;;;;;;;5.22;2.83;;;12.10;87.80;;;;;;5033614;28;20033;-53
2021/05/26 06:48:17;;;;;;;4.90;2.88;;;12.20;87.10;;;;;;5035623;28;20032;-49
2021/05/26 06:50:43;;;;;;;9.13;3.08;;;12.10;86.80;;;;;;5035449;28;20116;-49
2021/05/26 06:53:08;;;;;;;5.68;2.72;;;12.00;87.20;;;;;;5040760;28;20039;-50
2021/05/26 06:55:34;;;;;;;4.28;2.40;;;12.10;85.80;;;;;;5045302;28;20474;-55
2021/05/26 06:57:59;;;;;;;5.03;2.55;;;12.00;85.70;;;;;;5035373;28;20043;-52
2021/05/26 07:00:25;;;;;;;6.80;2.97;;;12.00;86.20;;;;;;5035519;28;20501;-50
2021/05/26 07:02:51;;;;;;;5.20;2.88;;;12.00;86.20;;;;;;5033746;28;20075;-53
2021/05/26 07:05:16;;;;;;;6.18;2.63;;;12.10;86.00;;;;;;5048658;28;20040;-55
2021/05/26 07:07:42;;;;;;;5.90;2.83;;;12.20;86.30;;;;;;5035686;28;20096;-53
2021/05/26 07:10:08;;;;;;;5.45;2.60;;;12.20;86.00;;;;;;5036882;28;20032;-52
2021/05/26 07:12:34;;;;;;;6.05;3.00;;;12.20;84.50;;;;;;5037653;28;20037;-50
2021/05/26 07:14:59;;;;;;;10.68;2.75;;;12.20;84.80;;;;;;5034099;28;20401;-47
2021/05/26 07:17:25;;;;;;;7.25;2.72;;;12.00;84.60;;;;;;5031877;28;20045;-50
2021/05/26 07:19:51;;;;;;;10.20;3.45;;;12.00;84.70;;;;;;5032730;28;20660;-53
2021/05/26 07:22:16;;;;;;;3.53;2.33;;;12.20;84.40;;;;;;5032830;28;20517;-51
2021/05/26 07:24:42;;;;;;;6.90;3.28;;;12.30;84.40;;;;;;5034080;28;20120;-52
2021/05/26 07:27:07;;;;;;;5.95;2.63;;;12.30;83.70;;;;;;5033531;28;20041;-54
2021/05/26 07:29:33;;;;;;;5.95;2.80;;;12.20;84.40;;;;;;5022405;28;20440;-53
2021/05/26 07:31:59;;;;;;;9.00;2.65;;;12.10;85.20;;;;;;5033521;28;20057;-55
2021/05/26 07:34:25;;;;;;;4.95;2.60;;;12.00;85.10;;;;;;5034448;28;20489;-49
2021/05/26 07:36:53;;;;;;;3.47;2.20;;;11.90;84.60;;;;;;5031324;28;20104;-51
2021/05/26 07:39:19;;;;;;;5.93;2.63;;;12.10;85.40;;;;;;5034367;28;20435;-51
2021/05/26 07:41:45;;;;;;;2.80;2.20;;;12.10;84.90;;;;;;5032644;28;20118;-50
2021/05/26 07:44:10;;;;;;;4.30;2.40;;;12.00;85.60;;;;;;5033367;28;20034;-49
2021/05/26 07:46:36;;;;;;;5.18;2.80;;;12.00;85.80;;;;;;5038561;28;20111;-53
2021/05/26 07:49:02;;;;;;;4.07;2.30;;;12.10;85.20;;;;;;5039541;28;20405;-55
2021/05/26 07:51:31;;;;;;;2.83;2.20;;;12.20;85.00;;;;;;5031778;28;20454;-57
2021/05/26 07:53:57;;;;;;;4.75;2.08;;;12.10;85.00;;;;;;5031744;28;20049;-50
2021/05/26 07:56:23;;;;;;;4.40;2.20;;;12.10;85.10;;;;;;5033337;28;20049;-51
2021/05/26 07:58:49;;;;;;;6.20;2.35;;;12.00;85.00;;;;;;5046527;28;20037;-52
2021/05/26 08:01:15;;;;;;;5.78;2.35;;;11.90;85.00;;;;;;5051104;28;20066;-55
2021/05/26 08:03:40;;;;;;;5.32;2.20;;;11.70;85.40;;;;;;5047075;28;20052;-53
2021/05/26 08:06:06;;;;;;;4.68;2.85;;;11.70;86.20;;;;;;5047044;28;20036;-54
2021/05/26 08:08:34;;;;;;;5.13;2.20;;;11.80;86.20;;;;;;5052300;28;20029;-48
2021/05/26 08:11:00;;;;;;;3.53;2.28;;;11.80;86.10;;;;;;5045508;28;20041;-51
2021/05/26 08:13:26;;;;;;;4.05;2.30;;;11.80;86.80;;;;;;5027148;28;20386;-58
2021/05/26 08:15:51;;;;;;;4.28;2.28;;;12.00;86.80;;;;;;5053271;28;20110;-51
2021/05/26 08:18:21;;;;;;;4.72;2.25;;;11.90;87.50;;;;;;5047646;28;20131;-51
2021/05/26 08:20:47;;;;;;;4.88;2.20;;;11.80;87.80;;;;;;5051470;28;20053;-57
2021/05/26 08:23:14;;;;;;;4.07;2.42;;;12.00;87.30;;;;;;5042005;28;20060;-55
2021/05/26 08:25:40;;;;;;;3.08;2.20;;;12.10;87.00;;;;;;5052396;28;20048;-55
2021/05/26 08:28:05;;;;;;;4.05;2.45;;;12.30;86.50;;;;;;5049009;28;21644;-53
2021/05/26 08:30:31;;;;;;;3.95;2.25;;;12.30;86.60;;;;;;5050602;28;20032;-51
2021/05/26 08:32:57;;;;;;;3.47;2.20;;;12.30;86.20;;;;;;5033053;28;20044;-53
2021/05/26 08:35:23;;;;;;;2.55;2.03;;;12.40;86.00;;;;;;5032363;28;20495;-51
2021/05/26 08:37:49;;;;;;;2.30;1.88;;;12.30;85.50;;;;;;5035128;28;20045;-56
2021/05/26 08:40:16;;;;;;;4.10;1.98;;;12.20;86.60;;;;;;5034311;28;20037;-57
2021/05/26 08:42:43;;;;;;;2.20;1.98;;;12.10;87.60;;;;;;5031656;28;20501;-50
2021/05/26 08:45:09;;;;;;;3.30;2.28;;;12.10;88.70;;;;;;5033082;28;20647;-48
2021/05/26 08:47:36;;;;;;;3.13;2.13;;;12.30;87.20;;;;;;5032907;28;20556;-52
2021/05/26 08:50:04;;;;;;;3.72;2.40;;;12.20;88.20;;;;;;5032561;28;20041;-49
2021/05/26 08:52:29;;;;;;;3.88;2.38;;;12.20;88.00;;;;;;5034373;28;20444;-60
2021/05/26 08:54:55;;;;;;;3.05;2.10;;;12.30;88.50;;;;;;5041633;28;20040;-53
2021/05/26 08:57:21;;;;;;;2.80;2.03;;;12.20;88.20;;;;;;5052974;28;20025;-56
2021/05/26 08:59:46;;;;;;;4.53;2.10;;;12.20;88.00;;;;;;5040233;28;20489;-54
2021/05/26 09:02:13;;;;;;;4.50;2.10;;;12.40;88.20;;;;;;5032392;28;20037;-50
2021/05/26 09:04:39;;;;;;;3.70;2.35;;;12.30;87.90;;;;;;5041310;28;20045;-53
2021/05/26 09:07:07;;;;;;;4.20;2.33;;;12.40;87.60;;;;;;5041878;28;20056;-51
2021/05/26 09:09:52;;;;;;;3.92;2.17;;;12.40;87.40;;;;;;5036236;28;20040;-49
2021/05/26 09:12:25;;;;;;;3.35;2.45;;;12.40;87.70;;;;;;5019848;28;20115;-50
2021/05/26 09:14:51;;;;;;;5.25;3.15;;;12.60;87.50;;;;;;5038286;28;20033;-49
2021/05/26 09:17:17;;;;;;;11.82;3.08;;;12.60;87.60;;;;;;5032372;28;20477;-52
2021/05/26 09:19:42;;;;;;;4.20;2.45;;;12.60;87.50;;;;;;5032117;28;20041;-50
2021/05/26 09:22:12;;;;;;;4.05;2.40;;;12.50;87.60;;;;;;5032172;28;20049;-50
2021/05/26 09:24:39;;;;;;;2.88;2.28;;;12.30;88.70;;;;;;5038009;28;20117;-49
2021/05/26 09:27:08;;;;;;;4.53;2.20;;;12.20;89.30;;;;;;5050233;28;20511;-54
2021/05/26 09:29:35;;;;;;;5.20;2.67;;;12.20;89.70;;;;;;5032933;28;20049;-50
2021/05/26 09:32:24;;;;;;;8.27;2.72;;;12.40;90.00;;;;;;5036126;28;20496;-54
2021/05/26 09:34:52;;;;;;;4.47;2.75;;;12.40;90.00;;;;;;5036514;28;20214;-53
2021/05/26 09:37:23;;;;;;;12.43;3.20;;;12.60;89.10;;;;;;5035330;28;20033;-55
2021/05/26 09:39:58;;;;;;;3.83;2.28;;;12.70;89.10;;;;;;5031844;28;20029;-48
2021/05/26 09:42:37;;;;;;;4.93;2.35;;;12.60;88.70;;;;;;5032604;28;20037;-51
2021/05/26 09:45:12;;;;;;;3.97;2.15;;;12.60;88.50;;;;;;5031755;28;20025;-49
2021/05/26 09:47:51;;;;;;;4.20;2.42;;;12.50;87.80;;;;;;5024564;28;20092;-49
2021/05/26 09:50:30;;;;;;;3.40;3.08;;;12.30;88.20;;;;;;5018189;28;20525;-49
2021/05/26 09:53:03;;;;;;;4.82;2.58;;;12.40;89.00;;;;;;5026770;28;20075;-50
2021/05/26 09:55:35;;;;;;;4.70;2.30;;;12.30;89.10;;;;;;5024016;28;20041;-53
2021/05/26 09:58:02;;;;;;;4.40;2.72;;;12.30;89.00;;;;;;5031107;28;20029;-52
2021/05/26 10:00:29;;;;;;;4.68;2.58;;;12.40;89.00;;;;;;5026044;28;20098;-54
2021/05/26 10:02:55;;;;;;;5.00;2.83;;;12.50;88.90;;;;;;5011729;28;20042;-54
2021/05/26 10:05:21;;;;;;;3.05;2.47;;;12.50;87.80;;;;;;5042817;28;20034;-55
2021/05/26 10:07:57;;;;;;;3.65;2.65;;;12.40;87.80;;;;;;5031240;28;20505;-53
2021/05/26 10:10:30;;;;;;;4.63;2.28;;;12.40;88.60;;;;;;5028559;28;20071;-55
2021/05/26 10:12:59;;;;;;;4.07;2.40;;;12.40;88.60;;;;;;5031233;28;20029;-53
2021/05/26 10:15:26;;;;;;;3.28;2.30;;;12.30;88.10;;;;;;5034973;28;20120;-52
2021/05/26 10:17:54;;;;;;;2.53;2.30;;;12.20;88.80;;;;;;5030022;28;20033;-50
2021/05/26 10:20:25;;;;;;;4.05;2.33;;;12.10;89.90;;;;;;5035050;28;20036;-54
2021/05/26 10:22:53;;;;;;;2.20;2.00;;;12.10;89.90;;;;;;5035625;28;20025;-54
2021/05/26 10:25:20;;;;;;;3.05;2.42;;;12.20;89.60;;;;;;5034950;28;20026;-55
2021/05/26 10:27:46;;;;;;;3.03;2.20;;;12.30;89.60;;;;;;5034742;28;20037;-54
2021/05/26 10:30:12;;;;;;;3.45;2.38;;;12.20;89.60;;;;;;5049416;28;20179;-60
2021/05/26 10:32:49;;;;;;;4.85;2.80;;;12.30;90.10;;;;;;5020178;28;20041;-53
2021/05/26 10:35:16;;;;;;;2.67;2.40;;;12.20;90.30;;;;;;5035555;28;20030;-57
2021/05/26 10:37:43;;;;;;;5.45;2.40;;;12.20;90.50;;;;;;5037195;28;20029;-54
2021/05/26 10:40:30;;;;;;;4.07;2.90;;;12.20;91.20;;;;;;5054912;28;20093;-53
2021/05/26 10:43:19;;;;;;;2.97;2.67;;;12.20;91.40;;;;;;5037216;28;20021;-48
2021/05/26 10:45:55;;;;;;;4.35;2.70;;;12.20;91.60;;;;;;5035605;28;20091;-49
2021/05/26 10:48:39;;;;;;;5.00;3.00;;;11.90;92.10;;;;;;5025652;28;20059;-51
2021/05/26 10:51:05;;;;;;;4.18;3.00;;;11.90;92.50;;;;;;5034888;28;20033;-52
2021/05/26 10:53:38;;;;;;;7.38;3.53;;;12.00;92.70;;;;;;5035725;28;20504;-52
2021/05/26 10:56:04;;;;;;;7.05;2.88;;;12.00;92.70;;;;;;5036087;28;20038;-57
2021/05/26 10:58:42;;;;;;;7.30;3.47;;;12.00;92.90;;;;;;5033949;28;20389;-48
2021/05/26 11:01:10;;;;;;;9.82;3.30;;;12.20;93.00;;;;;;5034657;28;20662;-49
2021/05/26 11:03:40;;;;;;;4.28;2.85;;;12.30;92.90;;;;;;5037889;28;20041;-58
2021/05/26 11:06:18;;;;;;;5.28;3.35;;;12.30;92.20;;;;;;5025189;28;20385;-52
2021/05/26 11:08:49;;;;;;;5.05;3.10;;;12.30;92.20;;;;;;5033385;28;20037;-56
2021/05/26 11:11:34;;;;;;;6.15;3.08;;;12.50;91.80;;;;;;5050242;28;20040;-59
2021/05/26 11:14:05;;;;;;;3.97;3.00;;;12.60;91.70;;;;;;5061479;28;20013;-54
2021/05/26 11:16:40;;;;;;;5.68;2.80;;;12.70;91.70;;;;;;5053690;28;20037;-55
2021/05/26 11:19:13;;;;;;;;;;;12.80;91.30;;;;;;5049646;28;20051;-50
2021/05/26 11:21:56;;;;;;;3.75;2.95;;;12.70;91.40;;;;;;5050437;28;20019;-53
2021/05/26 11:24:23;;;;;;;3.50;2.60;;;12.70;91.20;;;;;;5046709;28;20174;-55
2021/05/26 11:26:49;;;;;;;4.22;2.78;;;12.70;91.00;;;;;;5052814;28;20025;-52
2021/05/26 11:29:28;;;;;;;5.00;3.10;;;12.80;91.10;;;;;;5042607;28;20052;-56
2021/05/26 11:32:07;;;;;;;3.33;2.40;;;12.80;91.00;;;;;;5049862;28;20037;-55
2021/05/26 11:34:34;;;;;;;3.50;2.38;;;12.80;90.50;;;;;;5051941;28;20048;-57
2021/05/26 11:37:01;;;;;;;6.28;2.72;;;13.00;90.70;;;;;;5048353;28;21041;-54
2021/05/26 11:39:29;;;;;;;4.20;2.67;;;13.10;90.10;;;;;;5044115;28;20043;-56
2021/05/26 11:42:14;;;;;;;3.20;2.30;;;13.20;90.00;;;;;;5046648;28;20021;-55
2021/05/26 11:44:52;;;;;;;4.38;2.63;;;13.30;89.00;;;;;;5037811;28;20046;-54
2021/05/26 11:47:38;;;;;;;2.50;2.10;;;13.50;88.40;;;;;;5032377;28;20029;-57
2021/05/26 11:50:13;;;;;;;2.90;2.20;;;13.40;88.40;;;;;;5032573;28;20037;-55
2021/05/26 11:52:39;;;;;;;3.28;2.30;;;13.50;88.50;;;;;;5038409;28;20028;-54
2021/05/26 11:55:06;;;;;;;5.95;2.10;;;13.40;88.80;;;;;;5032000;28;20087;-55
2021/05/26 11:57:39;;;;;;;4.88;2.40;;;13.30;87.40;;;;;;5033659;28;20506;-53
2021/05/26 12:00:07;;;;;;;3.72;2.10;;;13.30;87.30;;;;;;5033964;28;20041;-56
2021/05/26 12:02:33;;;;;;;7.28;2.58;;;13.40;86.90;;;;;;5033415;28;20089;-57
2021/05/26 12:05:00;;;;;;;3.50;2.30;;;13.30;86.10;;;;;;5049534;28;20060;-55
2021/05/26 12:07:27;;;;;;;8.77;2.25;;;13.10;86.30;;;;;;5047763;28;20068;-53
2021/05/26 12:09:55;;;;;;;2.40;2.08;;;13.20;86.80;;;;;;5041544;28;20507;-55
2021/05/26 12:12:21;;;;;;;2.00;1.80;;;13.40;86.10;;;;;;5037621;28;20554;-62
2021/05/26 12:14:51;;;;;;;4.03;2.25;;;13.70;85.20;;;;;;5043652;28;20043;-52
2021/05/26 12:17:18;;;;;;;4.90;2.13;;;13.90;84.40;;;;;;5033067;28;20149;-65
2021/05/26 12:19:44;;;;;;;3.92;2.00;;;14.00;83.80;;;;;;5031288;28;20048;-53
2021/05/26 12:22:18;;;;;;;2.65;2.20;;;13.90;83.70;;;;;;5045866;28;20037;-53
2021/05/26 12:24:59;;;;;;;3.55;2.47;;;14.00;82.90;;;;;;5033233;28;20113;-59
2021/05/26 12:27:42;;;;;;;7.57;2.10;;;14.20;83.30;;;;;;5032773;28;20033;-54
2021/05/26 12:30:16;;;;;;;3.83;2.45;;;14.30;82.90;;;;;;5032827;28;20075;-58
2021/05/26 12:32:42;;;;;;;3.55;2.55;;;14.30;83.20;;;;;;5032653;28;20116;-57
2021/05/26 12:35:21;;;;;;;3.33;1.95;;;14.10;82.40;;;;;;5032873;28;20025;-59
2021/05/26 12:37:54;;;;;;;3.03;2.10;;;13.90;83.50;;;;;;5032377;28;20065;-54
2021/05/26 12:40:25;;;;;;;3.17;2.17;;;14.10;82.60;;;;;;5052848;28;20132;-49
2021/05/26 12:42:52;;;;;;;3.35;2.33;;;14.10;82.70;;;;;;5036474;28;20481;-51
2021/05/26 12:45:25;;;;;;;4.30;2.60;;;14.10;82.80;;;;;;5032629;28;20033;-57
2021/05/26 12:47:51;;;;;;;3.08;2.38;;;13.90;83.70;;;;;;5031258;28;20042;-53
2021/05/26 12:50:20;;;;;;;4.28;2.40;;;14.00;83.70;;;;;;5032025;28;20147;-51